GMMB

Details ICAO GMMB
Name BEN SLIMANE
Region Morocco
Timezone Africa/Casablanca (UTC+0.0)
Plans Departing 5
Arriving 11
Stats Elevation 627 ft / 191 m (AMSL)
Location 33.655423° -7.221449°
Runways 1
Magnetic Variation 1.698° W
Sunrise 2017-12-17 07:28:42 UTC / 2017-12-17 07:28:42 Local
Sunset 2017-12-17 17:24:04 UTC / 2017-12-17 17:24:04 Local
Advertisement - Login to hide

Runways

ID Width Length Bearing (true) Bearing (mag) Surface Threshold Offset Overrun Length
14 150 ft / 46 m 10,096 ft / 3,077 m 141.46° 143.16° Asphalt 0 ft / 0 m 249 ft / 76 m
32 150 ft / 46 m 10,096 ft / 3,077 m 321.47° 323.17° Asphalt 0 ft / 0 m 249 ft / 76 m

Map

Weather


0- 5 10 15 20 25 30 35+ Temperature / ° C

Clouds and Precipitation
Forecast for 2017-12-17 06:00 UTC. Updated 2 hours ago

Ground ~20,000 ft ~40,000 ft Winds

METAR

GMMB 170400Z AUTO 05003KT //// ////// 08/08 Q1023 NOSIG

TAF

Not found

Frequencies

Tower 118.20 MHz TWR
Approach 121.30 MHz APP
Warning: Do not use this data for real-world aviation or navigation. No guarantee of current accuracy is given.